sensor_id;sensor_type;location;lat;lon;timestamp;pressure;altitude;pressure_sealevel;temperature;humidity
31585;BME280;18191;51.288;12.390;2023-12-22T00:00:30;49229.66;;;-144.47;78.92
31585;BME280;18191;51.288;12.390;2023-12-22T00:05:20;49175.94;;;-144.47;80.29
31585;BME280;18191;51.288;12.390;2023-12-22T00:10:11;49223.69;;;-144.47;81.11
31585;BME280;18191;51.288;12.390;2023-12-22T00:15:01;49255.50;;;-144.47;81.35
31585;BME280;18191;51.288;12.390;2023-12-22T00:19:51;49205.78;;;-144.47;80.84
31585;BME280;18191;51.288;12.390;2023-12-22T00:24:41;49231.63;;;-144.47;79.76
31585;BME280;18191;51.288;12.390;2023-12-22T00:29:32;49211.75;;;-144.47;79.93
31585;BME280;18191;51.288;12.390;2023-12-22T00:34:25;49239.59;;;-144.47;80.11
31585;BME280;18191;51.288;12.390;2023-12-22T00:39:19;49209.75;;;-144.47;80.52
31585;BME280;18191;51.288;12.390;2023-12-22T00:44:09;49197.81;;;-144.47;79.34
31585;BME280;18191;51.288;12.390;2023-12-22T00:48:59;49211.75;;;-144.47;79.17
31585;BME280;18191;51.288;12.390;2023-12-22T00:53:50;49223.69;;;-144.47;79.11
31585;BME280;18191;51.288;12.390;2023-12-22T00:58:40;49171.97;;;-144.47;78.56
31585;BME280;18191;51.288;12.390;2023-12-22T01:03:31;49199.81;;;-144.47;78.60
31585;BME280;18191;51.288;12.390;2023-12-22T01:08:21;49205.78;;;-144.47;78.04
31585;BME280;18191;51.288;12.390;2023-12-22T01:13:11;49164.00;;;-144.47;77.61
31585;BME280;18191;51.288;12.390;2023-12-22T01:18:02;49197.81;;;-144.47;77.40
31585;BME280;18191;51.288;12.390;2023-12-22T01:22:52;49187.88;;;-144.47;77.52
31585;BME280;18191;51.288;12.390;2023-12-22T01:27:42;49179.91;;;-144.47;76.28
31585;BME280;18191;51.288;12.390;2023-12-22T01:32:32;49175.94;;;-144.47;74.91
31585;BME280;18191;51.288;12.390;2023-12-22T01:37:25;49193.84;;;-144.47;75.90
31585;BME280;18191;51.288;12.390;2023-12-22T01:42:15;49193.84;;;-144.47;75.13
31585;BME280;18191;51.288;12.390;2023-12-22T01:47:06;49175.94;;;-144.47;74.20
31585;BME280;18191;51.288;12.390;2023-12-22T01:51:56;49211.75;;;-144.47;73.24
31585;BME280;18191;51.288;12.390;2023-12-22T01:56:47;49191.84;;;-144.47;73.61
31585;BME280;18191;51.288;12.390;2023-12-22T02:01:38;49185.88;;;-144.47;73.83
31585;BME280;18191;51.288;12.390;2023-12-22T02:06:29;49203.78;;;-144.47;74.04
31585;BME280;18191;51.288;12.390;2023-12-22T02:11:20;49187.88;;;-144.47;74.86
31585;BME280;18191;51.288;12.390;2023-12-22T02:16:20;49144.09;;;-144.47;74.38
31585;BME280;18191;51.288;12.390;2023-12-22T02:21:13;49203.78;;;-144.47;75.99
31585;BME280;18191;51.288;12.390;2023-12-22T02:26:12;49169.97;;;-144.47;75.80
31585;BME280;18191;51.288;12.390;2023-12-22T02:31:16;49199.81;;;-144.47;75.94
31585;BME280;18191;51.288;12.390;2023-12-22T02:36:09;49227.66;;;-144.47;76.97
31585;BME280;18191;51.288;12.390;2023-12-22T02:41:00;49146.09;;;-144.47;77.13
31585;BME280;18191;51.288;12.390;2023-12-22T02:45:51;49195.84;;;-144.47;77.88
31585;BME280;18191;51.288;12.390;2023-12-22T02:50:41;49164.00;;;-144.47;78.24
31585;BME280;18191;51.288;12.390;2023-12-22T02:55:31;49164.00;;;-144.47;78.87
31585;BME280;18191;51.288;12.390;2023-12-22T03:00:22;49199.81;;;-144.47;78.65
31585;BME280;18191;51.288;12.390;2023-12-22T03:05:12;49193.84;;;-144.47;78.62
31585;BME280;18191;51.288;12.390;2023-12-22T03:10:02;49209.75;;;-144.47;78.57
31585;BME280;18191;51.288;12.390;2023-12-22T03:14:53;49160.03;;;-144.47;79.20
31585;BME280;18191;51.288;12.390;2023-12-22T03:19:43;49181.91;;;-144.47;78.95
31585;BME280;18191;51.288;12.390;2023-12-22T03:24:33;49177.94;;;-144.47;78.41
31585;BME280;18191;51.288;12.390;2023-12-22T03:29:24;49171.97;;;-144.47;78.83
31585;BME280;18191;51.288;12.390;2023-12-22T03:34:14;49207.78;;;-144.47;78.48
31585;BME280;18191;51.288;12.390;2023-12-22T03:39:04;49191.84;;;-144.47;79.03
31585;BME280;18191;51.288;12.390;2023-12-22T03:43:55;49171.97;;;-144.47;79.18
31585;BME280;18191;51.288;12.390;2023-12-22T03:48:45;49199.81;;;-144.47;79.65
31585;BME280;18191;51.288;12.390;2023-12-22T03:53:36;49203.78;;;-144.47;79.44
31585;BME280;18191;51.288;12.390;2023-12-22T03:58:27;49187.88;;;-144.47;80.17
31585;BME280;18191;51.288;12.390;2023-12-22T04:03:17;49199.81;;;-144.47;79.76
31585;BME280;18191;51.288;12.390;2023-12-22T04:08:07;49235.63;;;-144.47;80.88
31585;BME280;18191;51.288;12.390;2023-12-22T04:12:57;49162.00;;;-144.47;82.35
31585;BME280;18191;51.288;12.390;2023-12-22T04:17:48;49207.78;;;-144.47;83.21
31585;BME280;18191;51.288;12.390;2023-12-22T04:22:39;49203.78;;;-144.47;84.19
31585;BME280;18191;51.288;12.390;2023-12-22T04:27:29;49203.78;;;-144.47;85.22
31585;BME280;18191;51.288;12.390;2023-12-22T04:32:19;49183.91;;;-144.47;85.09
31585;BME280;18191;51.288;12.390;2023-12-22T04:37:10;49173.94;;;-144.47;84.20
31585;BME280;18191;51.288;12.390;2023-12-22T04:42:00;49199.81;;;-144.47;85.28
31585;BME280;18191;51.288;12.390;2023-12-22T04:46:50;49191.84;;;-144.47;85.13
31585;BME280;18191;51.288;12.390;2023-12-22T04:51:40;49179.91;;;-144.47;84.96
31585;BME280;18191;51.288;12.390;2023-12-22T04:56:31;49156.03;;;-144.47;84.67
31585;BME280;18191;51.288;12.390;2023-12-22T05:01:22;49195.84;;;-144.47;85.02
31585;BME280;18191;51.288;12.390;2023-12-22T05:06:12;49221.69;;;-144.47;85.26
31585;BME280;18191;51.288;12.390;2023-12-22T05:11:03;49225.66;;;-144.47;85.55
31585;BME280;18191;51.288;12.390;2023-12-22T05:15:53;49243.56;;;-144.47;85.68
31585;BME280;18191;51.288;12.390;2023-12-22T05:20:43;49239.59;;;-144.47;85.38
31585;BME280;18191;51.288;12.390;2023-12-22T05:25:34;49195.84;;;-144.47;83.75
31585;BME280;18191;51.288;12.390;2023-12-22T05:30:24;49211.75;;;-144.47;83.10
31585;BME280;18191;51.288;12.390;2023-12-22T05:35:14;49223.69;;;-144.47;82.63
31585;BME280;18191;51.288;12.390;2023-12-22T05:40:05;49239.59;;;-144.47;82.03
31585;BME280;18191;51.288;12.390;2023-12-22T05:44:59;49197.81;;;-144.47;81.48
31585;BME280;18191;51.288;12.390;2023-12-22T05:49:50;49235.63;;;-144.47;81.56
31585;BME280;18191;51.288;12.390;2023-12-22T05:54:40;49225.66;;;-144.47;81.03
31585;BME280;18191;51.288;12.390;2023-12-22T05:59:30;49185.88;;;-144.47;79.96
31585;BME280;18191;51.288;12.390;2023-12-22T06:04:22;49211.75;;;-144.47;78.86
31585;BME280;18191;51.288;12.390;2023-12-22T06:09:12;49231.63;;;-144.47;77.77
31585;BME280;18191;51.288;12.390;2023-12-22T06:14:02;49189.88;;;-144.47;77.24
31585;BME280;18191;51.288;12.390;2023-12-22T06:18:53;49215.72;;;-144.47;77.70
31585;BME280;18191;51.288;12.390;2023-12-22T06:23:43;49203.78;;;-144.47;77.04
31585;BME280;18191;51.288;12.390;2023-12-22T06:28:34;49173.94;;;-144.47;77.13
31585;BME280;18191;51.288;12.390;2023-12-22T06:33:26;49193.84;;;-144.47;80.38
31585;BME280;18191;51.288;12.390;2023-12-22T06:38:16;49207.78;;;-144.47;83.05
31585;BME280;18191;51.288;12.390;2023-12-22T06:43:06;49239.59;;;-144.47;82.20
31585;BME280;18191;51.288;12.390;2023-12-22T06:47:57;49219.72;;;-144.47;80.63
31585;BME280;18191;51.288;12.390;2023-12-22T06:52:47;49162.00;;;-144.47;81.47
31585;BME280;18191;51.288;12.390;2023-12-22T06:57:39;49191.84;;;-144.47;81.52
31585;BME280;18191;51.288;12.390;2023-12-22T07:02:29;49150.06;;;-144.47;79.97
31585;BME280;18191;51.288;12.390;2023-12-22T07:07:19;49235.63;;;-144.47;79.11
31585;BME280;18191;51.288;12.390;2023-12-22T07:12:10;49171.97;;;-144.47;79.79
31585;BME280;18191;51.288;12.390;2023-12-22T07:17:01;49160.03;;;-144.47;79.96
31585;BME280;18191;51.288;12.390;2023-12-22T07:21:51;49235.63;;;-144.47;79.49
31585;BME280;18191;51.288;12.390;2023-12-22T07:26:41;49215.72;;;-144.47;80.60
31585;BME280;18191;51.288;12.390;2023-12-22T07:31:32;49211.75;;;-144.47;80.16
31585;BME280;18191;51.288;12.390;2023-12-22T07:36:22;49179.91;;;-144.47;82.18
31585;BME280;18191;51.288;12.390;2023-12-22T07:41:12;49154.06;;;-144.47;83.25
31585;BME280;18191;51.288;12.390;2023-12-22T07:46:16;49183.91;;;-144.47;83.99
31585;BME280;18191;51.288;12.390;2023-12-22T07:51:07;49187.88;;;-144.47;83.52
31585;BME280;18191;51.288;12.390;2023-12-22T07:55:57;49160.03;;;-144.47;83.85
31585;BME280;18191;51.288;12.390;2023-12-22T08:00:49;49223.69;;;-144.47;81.87
31585;BME280;18191;51.288;12.390;2023-12-22T08:05:39;49227.66;;;-144.47;79.73
31585;BME280;18191;51.288;12.390;2023-12-22T08:10:29;49227.66;;;-144.47;80.02
31585;BME280;18191;51.288;12.390;2023-12-22T08:15:20;49205.78;;;-144.47;78.58
31585;BME280;18191;51.288;12.390;2023-12-22T08:20:10;49199.81;;;-144.47;78.70
31585;BME280;18191;51.288;12.390;2023-12-22T08:25:00;49229.66;;;-144.47;80.98
31585;BME280;18191;51.288;12.390;2023-12-22T08:30:08;49209.75;;;-144.47;81.50
31585;BME280;18191;51.288;12.390;2023-12-22T08:34:59;49235.63;;;-144.47;80.53
31585;BME280;18191;51.288;12.390;2023-12-22T08:39:49;49227.66;;;-144.47;79.56
31585;BME280;18191;51.288;12.390;2023-12-22T08:44:40;49213.75;;;-144.47;79.49
31585;BME280;18191;51.288;12.390;2023-12-22T08:49:31;49195.84;;;-144.47;79.36
31585;BME280;18191;51.288;12.390;2023-12-22T08:54:21;49171.97;;;-144.47;77.67
31585;BME280;18191;51.288;12.390;2023-12-22T08:59:11;49183.91;;;-144.47;76.56
31585;BME280;18191;51.288;12.390;2023-12-22T09:04:02;49183.91;;;-144.47;76.29
31585;BME280;18191;51.288;12.390;2023-12-22T09:08:52;49173.94;;;-144.47;75.32
31585;BME280;18191;51.288;12.390;2023-12-22T09:13:43;49227.66;;;-144.47;76.14
31585;BME280;18191;51.288;12.390;2023-12-22T09:18:34;49185.88;;;-144.47;81.60
31585;BME280;18191;51.288;12.390;2023-12-22T09:23:25;49219.72;;;-144.47;86.91
31585;BME280;18191;51.288;12.390;2023-12-22T09:28:15;49211.75;;;-144.47;88.00
31585;BME280;18191;51.288;12.390;2023-12-22T09:33:05;49219.72;;;-144.47;93.05
31585;BME280;18191;51.288;12.390;2023-12-22T09:37:56;49203.78;;;-144.47;94.80
31585;BME280;18191;51.288;12.390;2023-12-22T09:42:46;49191.84;;;-144.47;96.02
31585;BME280;18191;51.288;12.390;2023-12-22T09:47:37;49183.91;;;-144.47;98.00
31585;BME280;18191;51.288;12.390;2023-12-22T09:52:28;49203.78;;;-144.47;99.04
31585;BME280;18191;51.288;12.390;2023-12-22T09:57:20;49207.78;;;-144.47;100.00
31585;BME280;18191;51.288;12.390;2023-12-22T10:02:11;49187.88;;;-144.47;100.00
31585;BME280;18191;51.288;12.390;2023-12-22T10:07:02;49185.88;;;-144.47;100.00
31585;BME280;18191;51.288;12.390;2023-12-22T10:11:54;49223.69;;;-144.47;100.00
31585;BME280;18191;51.288;12.390;2023-12-22T10:16:46;49217.72;;;-144.47;100.00
31585;BME280;18191;51.288;12.390;2023-12-22T10:21:36;49207.78;;;-144.47;99.59
31585;BME280;18191;51.288;12.390;2023-12-22T10:26:28;49152.06;;;-144.47;100.00
31585;BME280;18191;51.288;12.390;2023-12-22T10:31:18;49205.78;;;-144.47;97.77
31585;BME280;18191;51.288;12.390;2023-12-22T10:36:08;49223.69;;;-144.47;97.93
31585;BME280;18191;51.288;12.390;2023-12-22T10:41:00;49215.72;;;-144.47;95.60
31585;BME280;18191;51.288;12.390;2023-12-22T10:45:52;49231.63;;;-144.47;93.94
31585;BME280;18191;51.288;12.390;2023-12-22T10:50:42;49207.78;;;-144.47;91.96
31585;BME280;18191;51.288;12.390;2023-12-22T10:55:34;49203.78;;;-144.47;90.33
31585;BME280;18191;51.288;12.390;2023-12-22T11:00:24;49223.69;;;-144.47;89.01
31585;BME280;18191;51.288;12.390;2023-12-22T11:05:15;49164.00;;;-144.47;87.53
31585;BME280;18191;51.288;12.390;2023-12-22T11:10:09;49211.75;;;-144.47;85.91
31585;BME280;18191;51.288;12.390;2023-12-22T11:15:02;49219.72;;;-144.47;85.60
31585;BME280;18191;51.288;12.390;2023-12-22T11:19:54;49245.56;;;-144.47;83.44
31585;BME280;18191;51.288;12.390;2023-12-22T11:24:47;49211.75;;;-144.47;82.52
31585;BME280;18191;51.288;12.390;2023-12-22T11:29:41;49201.81;;;-144.47;80.47
31585;BME280;18191;51.288;12.390;2023-12-22T11:34:36;49205.78;;;-144.47;81.09
31585;BME280;18191;51.288;12.390;2023-12-22T11:39:26;49177.94;;;-144.47;80.34
31585;BME280;18191;51.288;12.390;2023-12-22T11:44:17;49209.75;;;-144.47;79.93
31585;BME280;18191;51.288;12.390;2023-12-22T11:49:07;49207.78;;;-144.47;80.18
31585;BME280;18191;51.288;12.390;2023-12-22T11:53:57;49193.84;;;-144.47;78.44
31585;BME280;18191;51.288;12.390;2023-12-22T11:58:48;49160.03;;;-144.47;78.24
31585;BME280;18191;51.288;12.390;2023-12-22T12:03:55;49195.84;;;-144.47;78.36
31585;BME280;18191;51.288;12.390;2023-12-22T12:08:46;49183.91;;;-144.47;77.57
31585;BME280;18191;51.288;12.390;2023-12-22T12:13:42;49215.72;;;-144.47;78.54
31585;BME280;18191;51.288;12.390;2023-12-22T12:18:33;49177.94;;;-144.47;78.54
31585;BME280;18191;51.288;12.390;2023-12-22T12:23:24;49189.88;;;-144.47;78.13
31585;BME280;18191;51.288;12.390;2023-12-22T12:28:15;49171.97;;;-144.47;79.24
31585;BME280;18191;51.288;12.390;2023-12-22T12:33:09;49197.81;;;-144.47;79.80
31585;BME280;18191;51.288;12.390;2023-12-22T12:38:00;49187.88;;;-144.47;81.66
31585;BME280;18191;51.288;12.390;2023-12-22T12:42:50;49199.81;;;-144.47;83.60
31585;BME280;18191;51.288;12.390;2023-12-22T12:47:40;49199.81;;;-144.47;85.02
31585;BME280;18191;51.288;12.390;2023-12-22T12:52:31;49173.94;;;-144.47;86.92
31585;BME280;18191;51.288;12.390;2023-12-22T12:57:21;49207.78;;;-144.47;87.57
31585;BME280;18191;51.288;12.390;2023-12-22T13:02:12;49191.84;;;-144.47;89.51
31585;BME280;18191;51.288;12.390;2023-12-22T13:07:02;49203.78;;;-144.47;90.61
31585;BME280;18191;51.288;12.390;2023-12-22T13:11:53;49181.91;;;-144.47;91.29
31585;BME280;18191;51.288;12.390;2023-12-22T13:16:43;49164.00;;;-144.47;92.15
31585;BME280;18191;51.288;12.390;2023-12-22T13:21:33;49193.84;;;-144.47;92.50
31585;BME280;18191;51.288;12.390;2023-12-22T13:26:24;49211.75;;;-144.47;93.52
31585;BME280;18191;51.288;12.390;2023-12-22T13:31:14;49223.69;;;-144.47;92.12
31585;BME280;18191;51.288;12.390;2023-12-22T13:36:05;49211.75;;;-144.47;92.02
31585;BME280;18191;51.288;12.390;2023-12-22T13:40:56;49227.66;;;-144.47;92.31
31585;BME280;18191;51.288;12.390;2023-12-22T13:45:49;49211.75;;;-144.47;94.54
31585;BME280;18191;51.288;12.390;2023-12-22T13:50:41;49203.78;;;-144.47;95.84
31585;BME280;18191;51.288;12.390;2023-12-22T13:55:31;49225.66;;;-144.47;96.36
31585;BME280;18191;51.288;12.390;2023-12-22T14:00:30;49223.69;;;-144.47;95.81
31585;BME280;18191;51.288;12.390;2023-12-22T14:05:21;49203.78;;;-144.47;95.16
31585;BME280;18191;51.288;12.390;2023-12-22T14:10:12;49181.91;;;-144.47;96.10
31585;BME280;18191;51.288;12.390;2023-12-22T14:15:02;49233.63;;;-144.47;96.39
31585;BME280;18191;51.288;12.390;2023-12-22T14:19:53;49215.72;;;-144.47;95.97
31585;BME280;18191;51.288;12.390;2023-12-22T14:24:43;49203.78;;;-144.47;95.85
31585;BME280;18191;51.288;12.390;2023-12-22T14:29:33;49199.81;;;-144.47;95.70
31585;BME280;18191;51.288;12.390;2023-12-22T14:34:25;49203.78;;;-144.47;96.08
31585;BME280;18191;51.288;12.390;2023-12-22T14:39:16;49191.84;;;-144.47;95.20
31585;BME280;18191;51.288;12.390;2023-12-22T14:44:06;49207.78;;;-144.47;95.51
31585;BME280;18191;51.288;12.390;2023-12-22T14:48:56;49215.72;;;-144.47;95.63
31585;BME280;18191;51.288;12.390;2023-12-22T14:53:46;49235.63;;;-144.47;95.10
31585;BME280;18191;51.288;12.390;2023-12-22T14:58:37;49231.63;;;-144.47;95.06
31585;BME280;18191;51.288;12.390;2023-12-22T15:03:27;49195.84;;;-144.47;94.64
31585;BME280;18191;51.288;12.390;2023-12-22T15:08:17;49197.81;;;-144.47;94.29
31585;BME280;18191;51.288;12.390;2023-12-22T15:13:07;49187.88;;;-144.47;95.18
31585;BME280;18191;51.288;12.390;2023-12-22T15:17:58;49247.56;;;-144.47;94.88
31585;BME280;18191;51.288;12.390;2023-12-22T15:22:48;49249.53;;;-144.47;94.00
31585;BME280;18191;51.288;12.390;2023-12-22T15:27:38;49217.72;;;-144.47;96.19
31585;BME280;18191;51.288;12.390;2023-12-22T15:32:30;49255.50;;;-144.47;96.55
31585;BME280;18191;51.288;12.390;2023-12-22T15:37:20;49219.72;;;-144.47;97.46
31585;BME280;18191;51.288;12.390;2023-12-22T15:42:10;49193.84;;;-144.47;97.30
31585;BME280;18191;51.288;12.390;2023-12-22T15:47:00;49211.75;;;-144.47;96.78
31585;BME280;18191;51.288;12.390;2023-12-22T15:51:51;49201.81;;;-144.47;97.29
31585;BME280;18191;51.288;12.390;2023-12-22T15:56:45;49195.84;;;-144.47;95.44
31585;BME280;18191;51.288;12.390;2023-12-22T16:01:42;49237.59;;;-144.47;95.72
31585;BME280;18191;51.288;12.390;2023-12-22T16:06:32;49207.78;;;-144.47;95.14
31585;BME280;18191;51.288;12.390;2023-12-22T16:11:22;49231.63;;;-144.47;93.13
31585;BME280;18191;51.288;12.390;2023-12-22T16:16:17;49191.84;;;-144.47;94.14
31585;BME280;18191;51.288;12.390;2023-12-22T16:21:07;49162.00;;;-144.47;94.94
31585;BME280;18191;51.288;12.390;2023-12-22T16:25:58;49231.63;;;-144.47;93.71
31585;BME280;18191;51.288;12.390;2023-12-22T16:30:48;49221.69;;;-144.47;95.67
31585;BME280;18191;51.288;12.390;2023-12-22T16:35:39;49183.91;;;-144.47;96.82
31585;BME280;18191;51.288;12.390;2023-12-22T16:40:30;49195.84;;;-144.47;96.02
31585;BME280;18191;51.288;12.390;2023-12-22T16:45:20;49207.78;;;-144.47;94.14
31585;BME280;18191;51.288;12.390;2023-12-22T16:50:10;49243.56;;;-144.47;93.22
31585;BME280;18191;51.288;12.390;2023-12-22T16:55:01;49197.81;;;-144.47;94.94
31585;BME280;18191;51.288;12.390;2023-12-22T16:59:51;49239.59;;;-144.47;94.40
31585;BME280;18191;51.288;12.390;2023-12-22T17:04:41;49193.84;;;-144.47;93.90
31585;BME280;18191;51.288;12.390;2023-12-22T17:09:32;49199.81;;;-144.47;92.56
31585;BME280;18191;51.288;12.390;2023-12-22T17:14:22;49203.78;;;-144.47;92.19
31585;BME280;18191;51.288;12.390;2023-12-22T17:19:13;49175.94;;;-144.47;92.38
31585;BME280;18191;51.288;12.390;2023-12-22T17:24:03;49205.78;;;-144.47;93.87
31585;BME280;18191;51.288;12.390;2023-12-22T17:28:53;49156.03;;;-144.47;94.25
31585;BME280;18191;51.288;12.390;2023-12-22T17:33:43;49207.78;;;-144.47;94.69
31585;BME280;18191;51.288;12.390;2023-12-22T17:38:34;49211.75;;;-144.47;96.49
31585;BME280;18191;51.288;12.390;2023-12-22T17:43:24;49191.84;;;-144.47;99.21
31585;BME280;18191;51.288;12.390;2023-12-22T17:48:15;49199.81;;;-144.47;97.81
31585;BME280;18191;51.288;12.390;2023-12-22T17:53:05;49195.84;;;-144.47;98.16
31585;BME280;18191;51.288;12.390;2023-12-22T17:57:56;49239.59;;;-144.47;97.84
31585;BME280;18191;51.288;12.390;2023-12-22T18:02:46;49215.72;;;-144.47;97.45
31585;BME280;18191;51.288;12.390;2023-12-22T18:07:39;49179.91;;;-144.47;97.86
31585;BME280;18191;51.288;12.390;2023-12-22T18:12:30;49223.69;;;-144.47;97.42
31585;BME280;18191;51.288;12.390;2023-12-22T18:17:20;49207.78;;;-144.47;96.93
31585;BME280;18191;51.288;12.390;2023-12-22T18:22:10;49207.78;;;-144.47;97.57
31585;BME280;18191;51.288;12.390;2023-12-22T18:27:01;49197.81;;;-144.47;97.68
31585;BME280;18191;51.288;12.390;2023-12-22T18:31:51;49223.69;;;-144.47;99.51
31585;BME280;18191;51.288;12.390;2023-12-22T18:36:41;49237.59;;;-144.47;98.34
31585;BME280;18191;51.288;12.390;2023-12-22T18:41:33;49235.63;;;-144.47;98.65
31585;BME280;18191;51.288;12.390;2023-12-22T18:46:23;49207.78;;;-144.47;99.22
31585;BME280;18191;51.288;12.390;2023-12-22T18:51:14;49199.81;;;-144.47;100.00
31585;BME280;18191;51.288;12.390;2023-12-22T18:56:04;49183.91;;;-144.47;99.70
31585;BME280;18191;51.288;12.390;2023-12-22T19:00:55;49227.66;;;-144.47;100.00
31585;BME280;18191;51.288;12.390;2023-12-22T19:05:45;49195.84;;;-144.47;100.00
31585;BME280;18191;51.288;12.390;2023-12-22T19:10:35;49223.69;;;-144.47;100.00
31585;BME280;18191;51.288;12.390;2023-12-22T19:15:25;49191.84;;;-144.47;100.00
31585;BME280;18191;51.288;12.390;2023-12-22T19:20:16;49199.81;;;-144.47;100.00
31585;BME280;18191;51.288;12.390;2023-12-22T19:25:06;49219.72;;;-144.47;100.00
31585;BME280;18191;51.288;12.390;2023-12-22T19:29:57;49221.69;;;-144.47;100.00
31585;BME280;18191;51.288;12.390;2023-12-22T19:34:47;49237.59;;;-144.47;100.00
31585;BME280;18191;51.288;12.390;2023-12-22T19:39:37;49193.84;;;-144.47;100.00
31585;BME280;18191;51.288;12.390;2023-12-22T19:44:28;49229.66;;;-144.47;100.00
31585;BME280;18191;51.288;12.390;2023-12-22T19:49:18;49173.94;;;-144.47;100.00
31585;BME280;18191;51.288;12.390;2023-12-22T19:54:12;49243.56;;;-144.47;100.00
31585;BME280;18191;51.288;12.390;2023-12-22T19:59:03;49255.50;;;-144.47;100.00
31585;BME280;18191;51.288;12.390;2023-12-22T20:03:53;49207.78;;;-144.47;100.00
31585;BME280;18191;51.288;12.390;2023-12-22T20:08:44;49223.69;;;-144.47;100.00
31585;BME280;18191;51.288;12.390;2023-12-22T20:13:34;49239.59;;;-144.47;100.00
31585;BME280;18191;51.288;12.390;2023-12-22T20:18:25;49209.75;;;-144.47;100.00
31585;BME280;18191;51.288;12.390;2023-12-22T20:23:15;49227.66;;;-144.47;100.00
31585;BME280;18191;51.288;12.390;2023-12-22T20:28:05;49223.69;;;-144.47;100.00
31585;BME280;18191;51.288;12.390;2023-12-22T20:32:56;49225.66;;;-144.47;100.00
31585;BME280;18191;51.288;12.390;2023-12-22T20:37:46;49227.66;;;-144.47;100.00
31585;BME280;18191;51.288;12.390;2023-12-22T20:42:38;49195.84;;;-144.47;100.00
31585;BME280;18191;51.288;12.390;2023-12-22T20:47:28;49211.75;;;-144.47;100.00
31585;BME280;18191;51.288;12.390;2023-12-22T20:52:19;49203.78;;;-144.47;100.00
31585;BME280;18191;51.288;12.390;2023-12-22T20:57:09;49223.69;;;-144.47;100.00
31585;BME280;18191;51.288;12.390;2023-12-22T21:02:00;49227.66;;;-144.47;100.00
31585;BME280;18191;51.288;12.390;2023-12-22T21:06:50;49221.69;;;-144.47;100.00
31585;BME280;18191;51.288;12.390;2023-12-22T21:11:40;49219.72;;;-144.47;100.00
31585;BME280;18191;51.288;12.390;2023-12-22T21:16:30;49223.69;;;-144.47;100.00
31585;BME280;18191;51.288;12.390;2023-12-22T21:21:21;49235.63;;;-144.47;100.00
31585;BME280;18191;51.288;12.390;2023-12-22T21:26:19;49223.69;;;-144.47;100.00
31585;BME280;18191;51.288;12.390;2023-12-22T21:31:10;49225.66;;;-144.47;100.00
31585;BME280;18191;51.288;12.390;2023-12-22T21:36:01;49199.81;;;-144.47;100.00
31585;BME280;18191;51.288;12.390;2023-12-22T21:40:51;49191.84;;;-144.47;100.00
31585;BME280;18191;51.288;12.390;2023-12-22T21:45:41;49199.81;;;-144.47;100.00
31585;BME280;18191;51.288;12.390;2023-12-22T21:50:32;49231.63;;;-144.47;100.00
31585;BME280;18191;51.288;12.390;2023-12-22T21:55:22;49213.75;;;-144.47;100.00
31585;BME280;18191;51.288;12.390;2023-12-22T22:00:12;49247.56;;;-144.47;100.00
31585;BME280;18191;51.288;12.390;2023-12-22T22:05:03;49227.66;;;-144.47;100.00
31585;BME280;18191;51.288;12.390;2023-12-22T22:09:54;49215.72;;;-144.47;100.00
31585;BME280;18191;51.288;12.390;2023-12-22T22:14:45;49195.84;;;-144.47;100.00
31585;BME280;18191;51.288;12.390;2023-12-22T22:19:35;49219.72;;;-144.47;100.00
31585;BME280;18191;51.288;12.390;2023-12-22T22:24:25;49215.72;;;-144.47;100.00
31585;BME280;18191;51.288;12.390;2023-12-22T22:29:16;49221.69;;;-144.47;100.00
31585;BME280;18191;51.288;12.390;2023-12-22T22:34:07;49219.72;;;-144.47;100.00
31585;BME280;18191;51.288;12.390;2023-12-22T22:38:57;49179.91;;;-144.47;100.00
31585;BME280;18191;51.288;12.390;2023-12-22T22:43:48;49197.81;;;-144.47;100.00
31585;BME280;18191;51.288;12.390;2023-12-22T22:48:38;49215.72;;;-144.47;100.00
31585;BME280;18191;51.288;12.390;2023-12-22T22:53:29;49223.69;;;-144.47;100.00
31585;BME280;18191;51.288;12.390;2023-12-22T22:58:19;49219.72;;;-144.47;100.00
31585;BME280;18191;51.288;12.390;2023-12-22T23:03:09;49211.75;;;-144.47;100.00
31585;BME280;18191;51.288;12.390;2023-12-22T23:07:59;49251.53;;;-144.47;100.00
31585;BME280;18191;51.288;12.390;2023-12-22T23:12:49;49211.75;;;-144.47;100.00
31585;BME280;18191;51.288;12.390;2023-12-22T23:17:40;49215.72;;;-144.47;100.00
31585;BME280;18191;51.288;12.390;2023-12-22T23:22:30;49199.81;;;-144.47;100.00
31585;BME280;18191;51.288;12.390;2023-12-22T23:27:21;49207.78;;;-144.47;100.00
31585;BME280;18191;51.288;12.390;2023-12-22T23:32:11;49227.66;;;-144.47;99.22
31585;BME280;18191;51.288;12.390;2023-12-22T23:37:02;49243.56;;;-144.47;97.68
31585;BME280;18191;51.288;12.390;2023-12-22T23:41:52;49231.63;;;-144.47;96.90
31585;BME280;18191;51.288;12.390;2023-12-22T23:46:43;49227.66;;;-144.47;95.75
31585;BME280;18191;51.288;12.390;2023-12-22T23:51:33;49203.78;;;-144.47;94.96
31585;BME280;18191;51.288;12.390;2023-12-22T23:56:24;49215.72;;;-144.47;92.47
